sensor_id;sensor_type;location;lat;lon;timestamp;pressure;altitude;pressure_sealevel;temperature
24586;BMP280;12743;52.262;6.172;2023-02-02T00:01:59;100205.13;;;5.68
24586;BMP280;12743;52.262;6.172;2023-02-02T00:04:31;100219.34;;;5.71
24586;BMP280;12743;52.262;6.172;2023-02-02T00:06:58;100213.06;;;5.72
24586;BMP280;12743;52.262;6.172;2023-02-02T00:09:27;100228.75;;;5.80
24586;BMP280;12743;52.262;6.172;2023-02-02T00:11:55;100227.09;;;5.84
24586;BMP280;12743;52.262;6.172;2023-02-02T00:14:22;100223.09;;;5.87
24586;BMP280;12743;52.262;6.172;2023-02-02T00:16:53;100214.06;;;5.84
24586;BMP280;12743;52.262;6.172;2023-02-02T00:19:24;100218.19;;;5.85
24586;BMP280;12743;52.262;6.172;2023-02-02T00:21:55;100217.78;;;5.92
24586;BMP280;12743;52.262;6.172;2023-02-02T00:24:22;100194.59;;;5.82
24586;BMP280;12743;52.262;6.172;2023-02-02T00:26:51;100209.97;;;5.92
24586;BMP280;12743;52.262;6.172;2023-02-02T00:29:20;100196.44;;;5.81
24586;BMP280;12743;52.262;6.172;2023-02-02T00:31:48;100196.88;;;5.83
24586;BMP280;12743;52.262;6.172;2023-02-02T00:34:15;100197.28;;;5.99
24586;BMP280;12743;52.262;6.172;2023-02-02T00:36:42;100204.75;;;5.92
24586;BMP280;12743;52.262;6.172;2023-02-02T00:39:15;100203.66;;;5.93
24586;BMP280;12743;52.262;6.172;2023-02-02T00:41:42;100209.81;;;5.97
24586;BMP280;12743;52.262;6.172;2023-02-02T00:44:09;100168.97;;;5.75
24586;BMP280;12743;52.262;6.172;2023-02-02T00:46:54;100203.97;;;6.00
24586;BMP280;12743;52.262;6.172;2023-02-02T00:49:21;100202.91;;;6.01
24586;BMP280;12743;52.262;6.172;2023-02-02T00:51:49;100202.31;;;6.04
24586;BMP280;12743;52.262;6.172;2023-02-02T00:54:15;100198.06;;;5.99
24586;BMP280;12743;52.262;6.172;2023-02-02T00:56:42;100213.09;;;6.11
24586;BMP280;12743;52.262;6.172;2023-02-02T00:59:10;100209.84;;;6.05
24586;BMP280;12743;52.262;6.172;2023-02-02T01:01:36;100206.34;;;6.10
24586;BMP280;12743;52.262;6.172;2023-02-02T01:04:03;100203.13;;;6.13
24586;BMP280;12743;52.262;6.172;2023-02-02T01:06:30;100188.22;;;6.05
24586;BMP280;12743;52.262;6.172;2023-02-02T01:08:56;100207.59;;;6.12
24586;BMP280;12743;52.262;6.172;2023-02-02T01:11:23;100200.97;;;6.15
24586;BMP280;12743;52.262;6.172;2023-02-02T01:13:52;100210.94;;;6.13
24586;BMP280;12743;52.262;6.172;2023-02-02T01:16:19;100205.28;;;6.11
24586;BMP280;12743;52.262;6.172;2023-02-02T01:18:48;100190.69;;;6.10
24586;BMP280;12743;52.262;6.172;2023-02-02T01:21:15;100208.66;;;6.11
24586;BMP280;12743;52.262;6.172;2023-02-02T01:23:41;100205.00;;;6.12
24586;BMP280;12743;52.262;6.172;2023-02-02T01:26:10;100207.09;;;6.10
24586;BMP280;12743;52.262;6.172;2023-02-02T01:28:37;100210.78;;;6.09
24586;BMP280;12743;52.262;6.172;2023-02-02T01:31:14;100213.69;;;6.08
24586;BMP280;12743;52.262;6.172;2023-02-02T01:33:41;100225.50;;;6.05
24586;BMP280;12743;52.262;6.172;2023-02-02T01:36:12;100221.19;;;6.09
24586;BMP280;12743;52.262;6.172;2023-02-02T01:38:39;100213.38;;;6.09
24586;BMP280;12743;52.262;6.172;2023-02-02T01:41:08;100197.88;;;6.04
24586;BMP280;12743;52.262;6.172;2023-02-02T01:46:10;100202.66;;;6.11
24586;BMP280;12743;52.262;6.172;2023-02-02T01:48:40;100197.00;;;6.09
24586;BMP280;12743;52.262;6.172;2023-02-02T01:51:10;100203.72;;;6.10
24586;BMP280;12743;52.262;6.172;2023-02-02T01:53:39;100203.25;;;6.08
24586;BMP280;12743;52.262;6.172;2023-02-02T01:56:09;100207.72;;;6.07
24586;BMP280;12743;52.262;6.172;2023-02-02T01:58:39;100205.09;;;6.07
24586;BMP280;12743;52.262;6.172;2023-02-02T02:01:08;100193.72;;;6.03
24586;BMP280;12743;52.262;6.172;2023-02-02T02:03:36;100204.03;;;6.08
24586;BMP280;12743;52.262;6.172;2023-02-02T02:06:05;100206.47;;;6.05
24586;BMP280;12743;52.262;6.172;2023-02-02T02:08:43;100188.50;;;5.95
24586;BMP280;12743;52.262;6.172;2023-02-02T02:11:13;100196.31;;;5.95
24586;BMP280;12743;52.262;6.172;2023-02-02T02:13:41;100210.44;;;6.02
24586;BMP280;12743;52.262;6.172;2023-02-02T02:16:42;100210.91;;;6.04
24586;BMP280;12743;52.262;6.172;2023-02-02T02:25:57;100209.25;;;6.08
24586;BMP280;12743;52.262;6.172;2023-02-02T02:32:05;100189.34;;;6.12
24586;BMP280;12743;52.262;6.172;2023-02-02T02:34:42;100207.88;;;6.11
24586;BMP280;12743;52.262;6.172;2023-02-02T02:42:55;100207.72;;;6.07
24586;BMP280;12743;52.262;6.172;2023-02-02T02:45:25;100187.38;;;5.87
24586;BMP280;12743;52.262;6.172;2023-02-02T02:47:54;100201.22;;;5.96
24586;BMP280;12743;52.262;6.172;2023-02-02T02:50:22;100204.47;;;6.02
24586;BMP280;12743;52.262;6.172;2023-02-02T02:52:59;100195.88;;;6.01
24586;BMP280;12743;52.262;6.172;2023-02-02T02:55:35;100195.72;;;5.98
24586;BMP280;12743;52.262;6.172;2023-02-02T03:01:04;100206.75;;;6.03
24586;BMP280;12743;52.262;6.172;2023-02-02T03:03:46;100216.41;;;6.03
24586;BMP280;12743;52.262;6.172;2023-02-02T03:06:27;100200.41;;;5.87
24586;BMP280;12743;52.262;6.172;2023-02-02T03:08:58;100225.16;;;5.98
24586;BMP280;12743;52.262;6.172;2023-02-02T03:11:26;100227.88;;;5.93
24586;BMP280;12743;52.262;6.172;2023-02-02T03:13:52;100216.81;;;5.79
24586;BMP280;12743;52.262;6.172;2023-02-02T03:16:20;100236.13;;;5.87
24586;BMP280;12743;52.262;6.172;2023-02-02T03:18:46;100193.09;;;5.58
24586;BMP280;12743;52.262;6.172;2023-02-02T03:21:13;100257.47;;;5.89
24586;BMP280;12743;52.262;6.172;2023-02-02T03:23:39;100246.13;;;5.85
24586;BMP280;12743;52.262;6.172;2023-02-02T03:26:06;100245.66;;;5.83
24586;BMP280;12743;52.262;6.172;2023-02-02T03:28:33;100253.47;;;5.83
24586;BMP280;12743;52.262;6.172;2023-02-02T03:31:00;100256.34;;;5.81
24586;BMP280;12743;52.262;6.172;2023-02-02T03:33:27;100258.00;;;5.77
24586;BMP280;12743;52.262;6.172;2023-02-02T03:35:55;100261.69;;;5.76
24586;BMP280;12743;52.262;6.172;2023-02-02T03:38:21;100255.38;;;5.69
24586;BMP280;12743;52.262;6.172;2023-02-02T03:40:49;100249.41;;;5.77
24586;BMP280;12743;52.262;6.172;2023-02-02T03:43:20;100258.78;;;5.78
24586;BMP280;12743;52.262;6.172;2023-02-02T03:45:47;100248.94;;;5.75
24586;BMP280;12743;52.262;6.172;2023-02-02T03:48:13;100251.56;;;5.75
24586;BMP280;12743;52.262;6.172;2023-02-02T03:50:40;100247.41;;;5.74
24586;BMP280;12743;52.262;6.172;2023-02-02T03:53:06;100231.94;;;5.69
24586;BMP280;12743;52.262;6.172;2023-02-02T03:55:33;100240.03;;;5.67
24586;BMP280;12743;52.262;6.172;2023-02-02T03:58:00;100237.16;;;5.69
24586;BMP280;12743;52.262;6.172;2023-02-02T04:00:26;100242.03;;;5.70
24586;BMP280;12743;52.262;6.172;2023-02-02T04:02:53;100248.50;;;5.73
24586;BMP280;12743;52.262;6.172;2023-02-02T04:05:20;100238.69;;;5.70
24586;BMP280;12743;52.262;6.172;2023-02-02T04:07:47;100240.38;;;5.74
24586;BMP280;12743;52.262;6.172;2023-02-02T04:10:14;100233.59;;;5.73
24586;BMP280;12743;52.262;6.172;2023-02-02T04:12:41;100224.91;;;5.78
24586;BMP280;12743;52.262;6.172;2023-02-02T04:15:08;100222.63;;;5.76
24586;BMP280;12743;52.262;6.172;2023-02-02T04:17:34;100235.50;;;5.81
24586;BMP280;12743;52.262;6.172;2023-02-02T04:20:03;100220.06;;;5.85
24586;BMP280;12743;52.262;6.172;2023-02-02T04:22:30;100220.66;;;5.90
24586;BMP280;12743;52.262;6.172;2023-02-02T04:24:56;100217.94;;;5.95
24586;BMP280;12743;52.262;6.172;2023-02-02T04:27:23;100194.19;;;5.97
24586;BMP280;12743;52.262;6.172;2023-02-02T04:29:49;100206.94;;;5.98
24586;BMP280;12743;52.262;6.172;2023-02-02T04:32:17;100215.34;;;6.04
24586;BMP280;12743;52.262;6.172;2023-02-02T04:34:44;100225.97;;;6.07
24586;BMP280;12743;52.262;6.172;2023-02-02T04:37:10;100213.88;;;6.11
24586;BMP280;12743;52.262;6.172;2023-02-02T04:39:37;100206.03;;;6.11
24586;BMP280;12743;52.262;6.172;2023-02-02T04:42:04;100203.16;;;6.22
24586;BMP280;12743;52.262;6.172;2023-02-02T04:44:30;100219.56;;;6.22
24586;BMP280;12743;52.262;6.172;2023-02-02T04:46:57;100214.97;;;6.19
24586;BMP280;12743;52.262;6.172;2023-02-02T04:49:23;100201.63;;;6.29
24586;BMP280;12743;52.262;6.172;2023-02-02T04:51:50;100203.63;;;6.32
24586;BMP280;12743;52.262;6.172;2023-02-02T04:54:16;100206.09;;;6.37
24586;BMP280;12743;52.262;6.172;2023-02-02T04:56:43;100193.38;;;6.36
24586;BMP280;12743;52.262;6.172;2023-02-02T04:59:09;100201.06;;;6.41
24586;BMP280;12743;52.262;6.172;2023-02-02T05:01:36;100204.41;;;6.41
24586;BMP280;12743;52.262;6.172;2023-02-02T05:04:02;100212.09;;;6.38
24586;BMP280;12743;52.262;6.172;2023-02-02T05:06:29;100193.84;;;6.38
24586;BMP280;12743;52.262;6.172;2023-02-02T05:08:55;100198.88;;;6.34
24586;BMP280;12743;52.262;6.172;2023-02-02T05:11:22;100209.00;;;6.44
24586;BMP280;12743;52.262;6.172;2023-02-02T05:13:51;100204.84;;;6.43
24586;BMP280;12743;52.262;6.172;2023-02-02T05:16:17;100209.31;;;6.43
24586;BMP280;12743;52.262;6.172;2023-02-02T05:18:52;100220.06;;;6.50
24586;BMP280;12743;52.262;6.172;2023-02-02T05:21:19;100223.59;;;6.45
24586;BMP280;12743;52.262;6.172;2023-02-02T05:23:46;100227.00;;;6.46
24586;BMP280;12743;52.262;6.172;2023-02-02T05:26:21;100210.84;;;6.44
24586;BMP280;12743;52.262;6.172;2023-02-02T05:28:48;100222.66;;;6.41
24586;BMP280;12743;52.262;6.172;2023-02-02T05:31:14;100225.13;;;6.38
24586;BMP280;12743;52.262;6.172;2023-02-02T05:33:41;100233.88;;;6.42
24586;BMP280;12743;52.262;6.172;2023-02-02T05:36:08;100206.72;;;6.26
24586;BMP280;12743;52.262;6.172;2023-02-02T05:38:34;100234.97;;;6.41
24586;BMP280;12743;52.262;6.172;2023-02-02T05:41:01;100228.03;;;6.36
24586;BMP280;12743;52.262;6.172;2023-02-02T05:43:29;100216.03;;;6.27
24586;BMP280;12743;52.262;6.172;2023-02-02T05:45:56;100206.81;;;6.12
24586;BMP280;12743;52.262;6.172;2023-02-02T05:48:23;100229.44;;;6.42
24586;BMP280;12743;52.262;6.172;2023-02-02T05:53:27;100222.97;;;6.40
24586;BMP280;12743;52.262;6.172;2023-02-02T05:55:54;100236.63;;;6.37
24586;BMP280;12743;52.262;6.172;2023-02-02T05:58:21;100228.03;;;6.36
24586;BMP280;12743;52.262;6.172;2023-02-02T06:00:47;100232.94;;;6.46
24586;BMP280;12743;52.262;6.172;2023-02-02T06:03:14;100227.00;;;6.46
24586;BMP280;12743;52.262;6.172;2023-02-02T06:05:41;100225.91;;;6.47
24586;BMP280;12743;52.262;6.172;2023-02-02T06:08:07;100225.91;;;6.47
24586;BMP280;12743;52.262;6.172;2023-02-02T06:10:34;100211.91;;;6.26
24586;BMP280;12743;52.262;6.172;2023-02-02T06:13:00;100213.31;;;6.40
24586;BMP280;12743;52.262;6.172;2023-02-02T06:15:27;100218.69;;;6.35
24586;BMP280;12743;52.262;6.172;2023-02-02T06:17:54;100232.19;;;6.46
24586;BMP280;12743;52.262;6.172;2023-02-02T06:20:21;100234.66;;;6.42
24586;BMP280;12743;52.262;6.172;2023-02-02T06:22:47;100245.09;;;6.51
24586;BMP280;12743;52.262;6.172;2023-02-02T06:25:14;100251.38;;;6.50
24586;BMP280;12743;52.262;6.172;2023-02-02T06:27:41;100254.91;;;6.45
24586;BMP280;12743;52.262;6.172;2023-02-02T06:30:08;100245.88;;;6.51
24586;BMP280;12743;52.262;6.172;2023-02-02T06:32:34;100233.88;;;6.42
24586;BMP280;12743;52.262;6.172;2023-02-02T06:35:01;100256.00;;;6.53
24586;BMP280;12743;52.262;6.172;2023-02-02T06:37:27;100254.47;;;6.52
24586;BMP280;12743;52.262;6.172;2023-02-02T06:39:56;100255.53;;;6.51
24586;BMP280;12743;52.262;6.172;2023-02-02T06:42:22;100262.72;;;6.54
24586;BMP280;12743;52.262;6.172;2023-02-02T06:44:49;100248.16;;;6.53
24586;BMP280;12743;52.262;6.172;2023-02-02T06:47:15;100257.50;;;6.54
24586;BMP280;12743;52.262;6.172;2023-02-02T06:49:42;100242.91;;;6.44
24586;BMP280;12743;52.262;6.172;2023-02-02T06:52:09;100255.25;;;6.52
24586;BMP280;12743;52.262;6.172;2023-02-02T06:54:36;100251.84;;;6.52
24586;BMP280;12743;52.262;6.172;2023-02-02T06:57:02;100262.91;;;6.57
24586;BMP280;12743;52.262;6.172;2023-02-02T06:59:29;100262.13;;;6.57
24586;BMP280;12743;52.262;6.172;2023-02-02T07:01:55;100259.38;;;6.53
24586;BMP280;12743;52.262;6.172;2023-02-02T07:04:22;100256.31;;;6.60
24586;BMP280;12743;52.262;6.172;2023-02-02T07:06:48;100252.75;;;6.56
24586;BMP280;12743;52.262;6.172;2023-02-02T07:09:15;100247.25;;;6.66
24586;BMP280;12743;52.262;6.172;2023-02-02T07:11:42;100222.41;;;6.51
24586;BMP280;12743;52.262;6.172;2023-02-02T07:14:10;100251.25;;;6.63
24586;BMP280;12743;52.262;6.172;2023-02-02T07:16:37;100246.47;;;6.57
24586;BMP280;12743;52.262;6.172;2023-02-02T07:19:03;100250.78;;;6.70
24586;BMP280;12743;52.262;6.172;2023-02-02T07:21:30;100250.31;;;6.68
24586;BMP280;12743;52.262;6.172;2023-02-02T07:24:02;100253.38;;;6.70
24586;BMP280;12743;52.262;6.172;2023-02-02T07:26:29;100237.44;;;6.63
24586;BMP280;12743;52.262;6.172;2023-02-02T07:28:55;100240.81;;;6.63
24586;BMP280;12743;52.262;6.172;2023-02-02T07:31:24;100255.84;;;6.66
24586;BMP280;12743;52.262;6.172;2023-02-02T07:33:52;100241.56;;;6.55
24586;BMP280;12743;52.262;6.172;2023-02-02T07:36:21;100248.63;;;6.55
24586;BMP280;12743;52.262;6.172;2023-02-02T07:38:51;100282.09;;;6.70
24586;BMP280;12743;52.262;6.172;2023-02-02T07:41:20;100277.03;;;6.73
24586;BMP280;12743;52.262;6.172;2023-02-02T07:43:47;100271.53;;;6.75
24586;BMP280;12743;52.262;6.172;2023-02-02T07:46:15;100263.38;;;6.68
24586;BMP280;12743;52.262;6.172;2023-02-02T07:48:42;100275.22;;;6.74
24586;BMP280;12743;52.262;6.172;2023-02-02T07:51:12;100287.66;;;6.77
24586;BMP280;12743;52.262;6.172;2023-02-02T07:53:42;100287.19;;;6.75
24586;BMP280;12743;52.262;6.172;2023-02-02T07:56:11;100292.41;;;6.75
24586;BMP280;12743;52.262;6.172;2023-02-02T07:58:38;100269.94;;;6.57
24586;BMP280;12743;52.262;6.172;2023-02-02T08:01:06;100297.31;;;6.76
24586;BMP280;12743;52.262;6.172;2023-02-02T08:03:34;100264.91;;;6.60
24586;BMP280;12743;52.262;6.172;2023-02-02T08:06:07;100303.44;;;6.80
24586;BMP280;12743;52.262;6.172;2023-02-02T08:08:34;100301.31;;;6.74
24586;BMP280;12743;52.262;6.172;2023-02-02T08:11:01;100283.94;;;6.61
24586;BMP280;12743;52.262;6.172;2023-02-02T08:13:27;100302.06;;;6.74
24586;BMP280;12743;52.262;6.172;2023-02-02T08:15:56;100316.22;;;6.82
24586;BMP280;12743;52.262;6.172;2023-02-02T08:18:23;100314.19;;;6.79
24586;BMP280;12743;52.262;6.172;2023-02-02T08:20:49;100319.09;;;6.80
24586;BMP280;12743;52.262;6.172;2023-02-02T08:23:18;100311.72;;;6.82
24586;BMP280;12743;52.262;6.172;2023-02-02T08:25:49;100322.94;;;6.83
24586;BMP280;12743;52.262;6.172;2023-02-02T08:28:16;100326.34;;;6.83
24586;BMP280;12743;52.262;6.172;2023-02-02T08:30:43;100331.38;;;6.80
24586;BMP280;12743;52.262;6.172;2023-02-02T08:33:11;100331.09;;;6.81
24586;BMP280;12743;52.262;6.172;2023-02-02T08:35:41;100316.50;;;6.72
24586;BMP280;12743;52.262;6.172;2023-02-02T08:38:08;100334.34;;;6.78
24586;BMP280;12743;52.262;6.172;2023-02-02T08:40:35;100342.44;;;6.77
24586;BMP280;12743;52.262;6.172;2023-02-02T08:43:02;100357.47;;;6.80
24586;BMP280;12743;52.262;6.172;2023-02-02T08:45:30;100349.50;;;6.76
24586;BMP280;12743;52.262;6.172;2023-02-02T08:48:16;100330.44;;;6.59
24586;BMP280;12743;52.262;6.172;2023-02-02T08:50:51;100355.97;;;6.79
24586;BMP280;12743;52.262;6.172;2023-02-02T08:53:17;100358.56;;;6.79
24586;BMP280;12743;52.262;6.172;2023-02-02T08:55:44;100327.22;;;6.62
24586;BMP280;12743;52.262;6.172;2023-02-02T08:58:10;100357.97;;;6.82
24586;BMP280;12743;52.262;6.172;2023-02-02T09:00:37;100359.50;;;6.83
24586;BMP280;12743;52.262;6.172;2023-02-02T09:03:03;100368.88;;;6.84
24586;BMP280;12743;52.262;6.172;2023-02-02T09:05:30;100365.31;;;6.80
24586;BMP280;12743;52.262;6.172;2023-02-02T09:07:57;100379.94;;;6.90
24586;BMP280;12743;52.262;6.172;2023-02-02T09:10:23;100369.16;;;6.82
24586;BMP280;12743;52.262;6.172;2023-02-02T09:12:50;100382.69;;;6.93
24586;BMP280;12743;52.262;6.172;2023-02-02T09:15:16;100372.25;;;6.85
24586;BMP280;12743;52.262;6.172;2023-02-02T09:17:43;100392.69;;;6.91
24586;BMP280;12743;52.262;6.172;2023-02-02T09:20:10;100394.19;;;6.92
24586;BMP280;12743;52.262;6.172;2023-02-02T09:22:37;100399.75;;;6.91
24586;BMP280;12743;52.262;6.172;2023-02-02T09:25:04;100401.59;;;6.90
24586;BMP280;12743;52.262;6.172;2023-02-02T09:27:36;100401.31;;;6.92
24586;BMP280;12743;52.262;6.172;2023-02-02T09:30:03;100403.28;;;6.95
24586;BMP280;12743;52.262;6.172;2023-02-02T09:32:29;100402.19;;;6.87
24586;BMP280;12743;52.262;6.172;2023-02-02T09:34:56;100420.78;;;6.94
24586;BMP280;12743;52.262;6.172;2023-02-02T09:37:22;100427.56;;;6.95
24586;BMP280;12743;52.262;6.172;2023-02-02T09:39:49;100424.94;;;6.95
24586;BMP280;12743;52.262;6.172;2023-02-02T09:42:31;100427.25;;;6.97
24586;BMP280;12743;52.262;6.172;2023-02-02T09:47:48;100432.34;;;7.02
24586;BMP280;12743;52.262;6.172;2023-02-02T09:50:38;100438.31;;;7.02
24586;BMP280;12743;52.262;6.172;2023-02-02T09:53:22;100423.41;;;6.94
24586;BMP280;12743;52.262;6.172;2023-02-02T09:55:57;100443.09;;;7.00
24586;BMP280;12743;52.262;6.172;2023-02-02T09:58:48;100433.53;;;6.96
24586;BMP280;12743;52.262;6.172;2023-02-02T10:01:20;100448.47;;;7.04
24586;BMP280;12743;52.262;6.172;2023-02-02T10:03:57;100447.69;;;7.03
24586;BMP280;12743;52.262;6.172;2023-02-02T10:06:34;100452.91;;;7.03
24586;BMP280;12743;52.262;6.172;2023-02-02T10:09:19;100451.09;;;7.04
24586;BMP280;12743;52.262;6.172;2023-02-02T10:15:13;100456.00;;;7.05
24586;BMP280;12743;52.262;6.172;2023-02-02T10:18:01;100464.13;;;7.04
24586;BMP280;12743;52.262;6.172;2023-02-02T10:20:45;100466.88;;;6.99
24586;BMP280;12743;52.262;6.172;2023-02-02T10:23:26;100467.81;;;7.03
24586;BMP280;12743;52.262;6.172;2023-02-02T10:26:44;100474.41;;;7.00
24586;BMP280;12743;52.262;6.172;2023-02-02T10:29:07;100483.63;;;7.06
24586;BMP280;12743;52.262;6.172;2023-02-02T10:35:04;100461.66;;;6.99
24586;BMP280;12743;52.262;6.172;2023-02-02T10:37:48;100485.63;;;7.09
24586;BMP280;12743;52.262;6.172;2023-02-02T10:43:15;100485.03;;;7.12
24586;BMP280;12743;52.262;6.172;2023-02-02T10:46:03;100489.03;;;7.10
24586;BMP280;12743;52.262;6.172;2023-02-02T10:48:34;100482.44;;;7.12
24586;BMP280;12743;52.262;6.172;2023-02-02T10:51:30;100489.81;;;7.19
24586;BMP280;12743;52.262;6.172;2023-02-02T10:53:59;100485.97;;;7.16
24586;BMP280;12743;52.262;6.172;2023-02-02T10:56:36;100487.97;;;7.19
24586;BMP280;12743;52.262;6.172;2023-02-02T10:59:15;100478.13;;;7.16
24586;BMP280;12743;52.262;6.172;2023-02-02T11:01:44;100486.91;;;7.20
24586;BMP280;12743;52.262;6.172;2023-02-02T11:04:11;100472.91;;;7.16
24586;BMP280;12743;52.262;6.172;2023-02-02T11:06:56;100468.13;;;7.10
24586;BMP280;12743;52.262;6.172;2023-02-02T11:09:30;100480.13;;;7.19
24586;BMP280;12743;52.262;6.172;2023-02-02T11:12:09;100481.50;;;7.17
24586;BMP280;12743;52.262;6.172;2023-02-02T11:14:46;100487.97;;;7.19
24586;BMP280;12743;52.262;6.172;2023-02-02T11:17:22;100485.06;;;7.21
24586;BMP280;12743;52.262;6.172;2023-02-02T11:19:49;100485.84;;;7.21
24586;BMP280;12743;52.262;6.172;2023-02-02T11:22:32;100482.63;;;7.24
24586;BMP280;12743;52.262;6.172;2023-02-02T11:25:05;100454.31;;;7.09
24586;BMP280;12743;52.262;6.172;2023-02-02T11:27:40;100470.34;;;7.25
24586;BMP280;12743;52.262;6.172;2023-02-02T11:30:17;100469.72;;;7.28
24586;BMP280;12743;52.262;6.172;2023-02-02T11:32:44;100482.31;;;7.26
24586;BMP280;12743;52.262;6.172;2023-02-02T11:35:26;100477.72;;;7.31
24586;BMP280;12743;52.262;6.172;2023-02-02T11:38:07;100480.34;;;7.31
24586;BMP280;12743;52.262;6.172;2023-02-02T11:46:04;100482.78;;;7.28
24586;BMP280;12743;52.262;6.172;2023-02-02T11:48:37;100485.06;;;7.29
24586;BMP280;12743;52.262;6.172;2023-02-02T11:51:05;100485.84;;;7.30
24586;BMP280;12743;52.262;6.172;2023-02-02T11:53:36;100486.47;;;7.27
24586;BMP280;12743;52.262;6.172;2023-02-02T11:56:09;100489.09;;;7.27
24586;BMP280;12743;52.262;6.172;2023-02-02T11:58:58;100476.47;;;7.29
24586;BMP280;12743;52.262;6.172;2023-02-02T12:01:34;100479.84;;;7.29
24586;BMP280;12743;52.262;6.172;2023-02-02T12:04:08;100460.78;;;7.12
24586;BMP280;12743;52.262;6.172;2023-02-02T12:06:46;100460.34;;;7.18
24586;BMP280;12743;52.262;6.172;2023-02-02T12:09:16;100482.03;;;7.27
24586;BMP280;12743;52.262;6.172;2023-02-02T12:14:43;100482.19;;;7.31
24586;BMP280;12743;52.262;6.172;2023-02-02T12:20:13;100489.22;;;7.30
24586;BMP280;12743;52.262;6.172;2023-02-02T12:28:24;100473.09;;;7.28
24586;BMP280;12743;52.262;6.172;2023-02-02T12:34:07;100462.78;;;7.32
24586;BMP280;12743;52.262;6.172;2023-02-02T12:42:11;100457.44;;;7.37
24586;BMP280;12743;52.262;6.172;2023-02-02T12:47:40;100453.44;;;7.31
24586;BMP280;12743;52.262;6.172;2023-02-02T12:50:38;100459.75;;;7.38
24586;BMP280;12743;52.262;6.172;2023-02-02T12:53:36;100457.13;;;7.38
24586;BMP280;12743;52.262;6.172;2023-02-02T12:56:17;100456.69;;;7.36
24586;BMP280;12743;52.262;6.172;2023-02-02T13:02:04;100457.00;;;7.35
24586;BMP280;12743;52.262;6.172;2023-02-02T13:04:59;100460.66;;;7.34
24586;BMP280;12743;52.262;6.172;2023-02-02T13:07:46;100464.34;;;7.33
24586;BMP280;12743;52.262;6.172;2023-02-02T13:10:31;100453.28;;;7.27
24586;BMP280;12743;52.262;6.172;2023-02-02T13:13:13;100467.72;;;7.33
24586;BMP280;12743;52.262;6.172;2023-02-02T13:15:45;100464.06;;;7.34
24586;BMP280;12743;52.262;6.172;2023-02-02T13:18:23;100466.06;;;7.37
24586;BMP280;12743;52.262;6.172;2023-02-02T13:21:01;100458.94;;;7.29
24586;BMP280;12743;52.262;6.172;2023-02-02T13:23:33;100472.06;;;7.38
24586;BMP280;12743;52.262;6.172;2023-02-02T13:26:11;100468.19;;;7.35
24586;BMP280;12743;52.262;6.172;2023-02-02T13:34:26;100466.34;;;7.36
24586;BMP280;12743;52.262;6.172;2023-02-02T13:37:07;100448.19;;;7.22
24586;BMP280;12743;52.262;6.172;2023-02-02T13:39:43;100469.47;;;7.38
24586;BMP280;12743;52.262;6.172;2023-02-02T13:47:48;100483.13;;;7.35
24586;BMP280;12743;52.262;6.172;2023-02-02T13:50:19;100477.41;;;7.33
24586;BMP280;12743;52.262;6.172;2023-02-02T13:53:01;100485.56;;;7.31
24586;BMP280;12743;52.262;6.172;2023-02-02T13:55:50;100482.34;;;7.34
24586;BMP280;12743;52.262;6.172;2023-02-02T13:58:34;100476.63;;;7.32
24586;BMP280;12743;52.262;6.172;2023-02-02T14:01:07;100497.53;;;7.32
24586;BMP280;12743;52.262;6.172;2023-02-02T14:03:42;100473.38;;;7.18
24586;BMP280;12743;52.262;6.172;2023-02-02T14:06:19;100503.84;;;7.31
24586;BMP280;12743;52.262;6.172;2023-02-02T14:09:00;100504.44;;;7.28
24586;BMP280;12743;52.262;6.172;2023-02-02T14:11:30;100497.53;;;7.24
24586;BMP280;12743;52.262;6.172;2023-02-02T14:16:47;100510.28;;;7.25
24586;BMP280;12743;52.262;6.172;2023-02-02T14:24:43;100517.47;;;7.20
24586;BMP280;12743;52.262;6.172;2023-02-02T14:29:57;100515.03;;;7.23
24586;BMP280;12743;52.262;6.172;2023-02-02T14:48:17;100498.41;;;7.11
24586;BMP280;12743;52.262;6.172;2023-02-02T14:51:11;100518.88;;;7.26
24586;BMP280;12743;52.262;6.172;2023-02-02T14:53:39;100521.22;;;7.27
24586;BMP280;12743;52.262;6.172;2023-02-02T14:56:13;100518.84;;;7.17
24586;BMP280;12743;52.262;6.172;2023-02-02T14:58:43;100526.53;;;7.22
24586;BMP280;12743;52.262;6.172;2023-02-02T15:06:36;100528.69;;;7.20
24586;BMP280;12743;52.262;6.172;2023-02-02T15:17:04;100533.13;;;7.20
24586;BMP280;12743;52.262;6.172;2023-02-02T15:19:39;100513.31;;;7.10
24586;BMP280;12743;52.262;6.172;2023-02-02T15:22:40;100550.38;;;7.21
24586;BMP280;12743;52.262;6.172;2023-02-02T15:25:27;100519.75;;;7.04
24586;BMP280;12743;52.262;6.172;2023-02-02T15:30:58;100546.50;;;7.18
24586;BMP280;12743;52.262;6.172;2023-02-02T15:33:29;100544.50;;;7.15
24586;BMP280;12743;52.262;6.172;2023-02-02T15:35:58;100525.41;;;7.06
24586;BMP280;12743;52.262;6.172;2023-02-02T15:38:37;100556.97;;;7.18
24586;BMP280;12743;52.262;6.172;2023-02-02T15:41:07;100555.88;;;7.19
24586;BMP280;12743;52.262;6.172;2023-02-02T15:43:37;100545.28;;;7.16
24586;BMP280;12743;52.262;6.172;2023-02-02T15:46:09;100530.03;;;7.09
24586;BMP280;12743;52.262;6.172;2023-02-02T15:48:38;100554.63;;;7.17
24586;BMP280;12743;52.262;6.172;2023-02-02T15:51:15;100550.66;;;7.19
24586;BMP280;12743;52.262;6.172;2023-02-02T15:56:27;100515.41;;;7.00
24586;BMP280;12743;52.262;6.172;2023-02-02T15:58:58;100549.88;;;7.19
24586;BMP280;12743;52.262;6.172;2023-02-02T16:01:28;100550.66;;;7.19
24586;BMP280;12743;52.262;6.172;2023-02-02T16:06:32;100552.03;;;7.17
24586;BMP280;12743;52.262;6.172;2023-02-02T16:09:03;100540.19;;;7.11
24586;BMP280;12743;52.262;6.172;2023-02-02T16:11:30;100559.41;;;7.15
24586;BMP280;12743;52.262;6.172;2023-02-02T16:14:05;100570.00;;;7.18
24586;BMP280;12743;52.262;6.172;2023-02-02T16:16:38;100564.78;;;7.18
24586;BMP280;12743;52.262;6.172;2023-02-02T16:21:39;100568.94;;;7.19
24586;BMP280;12743;52.262;6.172;2023-02-02T16:24:14;100568.78;;;7.16
24586;BMP280;12743;52.262;6.172;2023-02-02T16:26:41;100573.69;;;7.17
24586;BMP280;12743;52.262;6.172;2023-02-02T16:29:12;100542.47;;;7.04
24586;BMP280;12743;52.262;6.172;2023-02-02T16:31:51;100570.00;;;7.18
24586;BMP280;12743;52.262;6.172;2023-02-02T16:37:15;100574.66;;;7.21
24586;BMP280;12743;52.262;6.172;2023-02-02T16:39:42;100574.75;;;7.16
24586;BMP280;12743;52.262;6.172;2023-02-02T16:42:25;100580.31;;;7.23
24586;BMP280;12743;52.262;6.172;2023-02-02T16:44:53;100586.94;;;7.21